Time;durP1;ratioP1;P1;durP2;ratioP2;P2;SDS_P1;SDS_P2;PMS_P1;PMS_P2;Temp;Humidity;BMP_temperature;BMP_pressure;BME280_temperature;BME280_humidity;BME280_pressure;Samples;Min_cycle;Max_cycle;Signal;HPM_P1;HPM_P2
2023/07/29 00:00:43;;;;;;;1.35;1.25;;;20.40;99.90;;;;;;5080944;28;20499;-83
2023/07/29 00:03:09;;;;;;;1.00;1.00;;;20.30;99.90;;;;;;5076030;28;20107;-84
2023/07/29 00:05:35;;;;;;;1.02;1.02;;;20.30;99.90;;;;;;5075966;28;20027;-83
2023/07/29 00:08:01;;;;;;;3.13;1.65;;;20.30;99.90;;;;;;5077166;28;20031;-83
2023/07/29 00:10:27;;;;;;;2.47;1.67;;;20.30;99.90;;;;;;5081762;28;20048;-83
2023/07/29 00:12:52;;;;;;;1.40;1.30;;;20.30;99.90;;;;;;5077684;28;20019;-83
2023/07/29 00:15:18;;;;;;;1.92;1.35;;;20.20;99.90;;;;;;5072789;28;20032;-84
2023/07/29 00:17:44;;;;;;;2.53;1.45;;;20.30;99.90;;;;;;5084981;28;20450;-83
2023/07/29 00:20:09;;;;;;;1.67;1.40;;;20.30;99.90;;;;;;5078309;28;20024;-83
2023/07/29 00:22:35;;;;;;;2.67;1.08;;;20.30;99.90;;;;;;5063837;28;20020;-83
2023/07/29 00:25:01;;;;;;;2.78;1.20;;;20.30;99.90;;;;;;5080225;28;20445;-83
2023/07/29 00:27:27;;;;;;;1.85;1.52;;;20.30;99.90;;;;;;5085587;28;20040;-84
2023/07/29 00:29:53;;;;;;;1.90;1.70;;;20.30;99.90;;;;;;5079557;28;20362;-83
2023/07/29 00:32:18;;;;;;;2.72;1.30;;;20.30;99.90;;;;;;5081417;28;20031;-83
2023/07/29 00:34:44;;;;;;;1.13;1.00;;;20.30;99.90;;;;;;5080801;28;20020;-83
2023/07/29 00:37:10;;;;;;;3.97;1.40;;;20.30;99.90;;;;;;5082440;28;20460;-83
2023/07/29 00:39:39;;;;;;;1.58;1.33;;;20.30;99.90;;;;;;5083926;28;20381;-83
2023/07/29 00:42:05;;;;;;;1.00;1.00;;;20.30;99.90;;;;;;5080843;28;20040;-83
2023/07/29 00:44:34;;;;;;;3.70;1.10;;;20.30;99.90;;;;;;5080640;28;20077;-83
2023/07/29 00:47:02;;;;;;;2.60;1.45;;;20.30;99.90;;;;;;5080919;28;20049;-83
2023/07/29 00:49:28;;;;;;;1.15;1.15;;;20.30;99.90;;;;;;5082598;28;20058;-83
2023/07/29 00:51:54;;;;;;;1.55;1.42;;;20.30;99.90;;;;;;5079778;28;20020;-83
2023/07/29 00:54:20;;;;;;;1.83;1.33;;;20.30;99.90;;;;;;5085650;28;20108;-83
2023/07/29 00:56:45;;;;;;;1.20;1.10;;;20.30;99.90;;;;;;5078856;28;20040;-83
2023/07/29 00:59:11;;;;;;;1.75;1.25;;;20.30;99.90;;;;;;5086925;28;20087;-83
2023/07/29 01:01:38;;;;;;;1.35;1.25;;;20.30;99.90;;;;;;5078513;28;20051;-83
2023/07/29 01:04:04;;;;;;;5.20;1.15;;;20.20;99.90;;;;;;5081320;28;20496;-83
2023/07/29 01:07:22;;;;;;;1.35;0.90;;;20.20;99.90;;;;;;5084320;28;20028;-83
2023/07/29 01:09:58;;;;;;;3.13;1.27;;;20.10;99.90;;;;;;4999807;28;20034;-83
2023/07/29 01:12:54;;;;;;;3.55;1.13;;;20.20;99.90;;;;;;5080308;28;20114;-83
2023/07/29 01:15:28;;;;;;;;;;;20.10;99.90;;;;;;5080734;28;20078;-83
2023/07/29 01:18:05;;;;;;;4.03;1.63;;;20.10;99.90;;;;;;5086575;28;19904;-83
2023/07/29 01:20:36;;;;;;;1.73;1.08;;;20.10;99.90;;;;;;5079476;28;20401;-82
2023/07/29 01:23:02;;;;;;;1.13;1.02;;;20.00;99.90;;;;;;5084064;28;20037;-82
2023/07/29 01:25:28;;;;;;;1.23;1.08;;;20.00;99.90;;;;;;5086078;28;20027;-83
2023/07/29 01:27:55;;;;;;;1.65;1.55;;;20.00;99.90;;;;;;5081172;28;20598;-83
2023/07/29 01:30:28;;;;;;;1.60;1.50;;;20.00;99.90;;;;;;5079438;28;20153;-83
2023/07/29 01:33:29;;;;;;;1.67;1.35;;;20.00;99.90;;;;;;5081200;28;20040;-83
2023/07/29 01:36:03;;;;;;;3.08;1.20;;;19.90;99.90;;;;;;5049434;28;20058;-83
2023/07/29 01:38:40;;;;;;;2.53;1.40;;;19.90;99.90;;;;;;5075768;28;20020;-83
2023/07/29 01:41:08;;;;;;;1.85;1.33;;;19.80;99.90;;;;;;5087208;28;20055;-83
2023/07/29 01:43:34;;;;;;;1.83;1.27;;;19.80;99.90;;;;;;5083809;28;20042;-82
2023/07/29 01:46:02;;;;;;;1.30;1.20;;;19.80;99.90;;;;;;5084429;28;20020;-83
2023/07/29 01:48:30;;;;;;;1.98;1.10;;;19.80;99.90;;;;;;5086281;28;20050;-83
2023/07/29 01:50:56;;;;;;;1.40;1.30;;;19.70;99.90;;;;;;5083513;28;20058;-83
2023/07/29 01:53:21;;;;;;;1.48;1.38;;;19.70;99.90;;;;;;5079511;28;20433;-83
2023/07/29 01:55:47;;;;;;;1.42;1.33;;;19.70;99.90;;;;;;5081444;28;20023;-84
2023/07/29 01:58:14;;;;;;;1.02;1.00;;;19.60;99.90;;;;;;5084034;28;20113;-83
2023/07/29 02:00:42;;;;;;;1.40;1.27;;;19.60;99.90;;;;;;5076950;28;20384;-83
2023/07/29 02:03:08;;;;;;;1.35;1.25;;;19.60;99.90;;;;;;5076202;28;20028;-83
2023/07/29 02:05:33;;;;;;;1.42;1.33;;;19.60;99.90;;;;;;5081072;28;20422;-83
2023/07/29 02:07:59;;;;;;;1.13;1.10;;;19.60;99.90;;;;;;5082385;28;20040;-84
2023/07/29 02:10:24;;;;;;;1.40;1.30;;;19.50;99.90;;;;;;5083476;28;20107;-83
2023/07/29 02:12:50;;;;;;;2.03;1.27;;;19.60;99.90;;;;;;5086257;28;20044;-83
2023/07/29 02:15:16;;;;;;;2.53;1.30;;;19.50;99.90;;;;;;5087920;28;20024;-83
2023/07/29 02:17:42;;;;;;;1.17;1.15;;;19.50;99.90;;;;;;5076594;28;20408;-83
2023/07/29 02:20:08;;;;;;;1.27;1.13;;;19.40;99.90;;;;;;5082165;28;20028;-84
2023/07/29 02:22:34;;;;;;;2.08;1.38;;;19.40;99.90;;;;;;5080700;28;20024;-83
2023/07/29 02:25:00;;;;;;;0.90;0.90;;;19.40;99.90;;;;;;5083776;28;20020;-83
2023/07/29 02:27:27;;;;;;;1.00;0.90;;;19.30;99.90;;;;;;5078334;28;20314;-83
2023/07/29 02:29:53;;;;;;;2.58;1.15;;;19.20;99.90;;;;;;5087819;28;20484;-83
2023/07/29 02:32:18;;;;;;;1.48;1.38;;;19.20;99.90;;;;;;5069832;28;20035;-83
2023/07/29 02:34:44;;;;;;;3.70;1.42;;;19.10;99.90;;;;;;5083313;28;20108;-84
2023/07/29 02:37:10;;;;;;;1.63;1.30;;;19.00;99.90;;;;;;5080173;28;20028;-83
2023/07/29 02:39:36;;;;;;;1.92;1.40;;;18.90;99.90;;;;;;5080888;28;20107;-84
2023/07/29 02:42:02;;;;;;;1.88;1.20;;;18.90;99.90;;;;;;5083871;28;20016;-83
2023/07/29 02:44:28;;;;;;;3.30;1.40;;;18.80;99.90;;;;;;5072273;28;20040;-83
2023/07/29 02:46:55;;;;;;;1.25;1.15;;;18.80;99.90;;;;;;5087915;28;20411;-84
2023/07/29 02:49:21;;;;;;;4.50;1.40;;;18.80;99.90;;;;;;5078628;28;20032;-83
2023/07/29 02:51:47;;;;;;;5.07;1.55;;;18.70;99.90;;;;;;5085137;28;20537;-83
2023/07/29 02:54:12;;;;;;;1.50;1.40;;;18.70;99.90;;;;;;5087276;28;20083;-82
2023/07/29 02:56:38;;;;;;;1.92;1.30;;;18.70;99.90;;;;;;5085439;28;20020;-84
2023/07/29 02:59:04;;;;;;;3.05;1.40;;;18.60;99.90;;;;;;5081593;28;20070;-83
2023/07/29 03:01:30;;;;;;;1.48;1.38;;;18.60;99.90;;;;;;5078062;28;20028;-82
2023/07/29 03:03:56;;;;;;;1.67;1.30;;;18.60;99.90;;;;;;5061660;28;20032;-83
2023/07/29 03:06:21;;;;;;;1.92;1.30;;;18.60;99.90;;;;;;5078272;28;20016;-83
2023/07/29 03:08:47;;;;;;;1.02;1.02;;;18.60;99.90;;;;;;5081587;28;20064;-82
2023/07/29 03:11:15;;;;;;;1.17;1.13;;;18.70;99.90;;;;;;5082805;28;20376;-82
2023/07/29 03:13:41;;;;;;;1.77;1.60;;;18.70;99.90;;;;;;5084212;28;20030;-83
2023/07/29 03:16:08;;;;;;;2.95;1.17;;;18.70;99.90;;;;;;5064487;28;20329;-82
2023/07/29 03:18:34;;;;;;;1.98;1.40;;;18.70;99.90;;;;;;5086314;28;20435;-83
2023/07/29 03:21:00;;;;;;;1.50;1.30;;;18.80;99.90;;;;;;5081249;28;20012;-83
2023/07/29 03:23:27;;;;;;;1.40;1.30;;;18.70;99.90;;;;;;5077066;28;20469;-83
2023/07/29 03:25:56;;;;;;;2.00;1.63;;;18.70;99.90;;;;;;5077730;28;20047;-83
2023/07/29 03:28:24;;;;;;;2.45;1.90;;;18.80;99.90;;;;;;5078329;28;20052;-83
2023/07/29 03:30:49;;;;;;;1.60;1.40;;;18.80;99.90;;;;;;5079398;28;20031;-83
2023/07/29 03:33:15;;;;;;;1.63;1.52;;;18.80;99.90;;;;;;5083528;28;20024;-83
2023/07/29 03:35:44;;;;;;;1.38;1.27;;;18.80;99.90;;;;;;5069515;28;20078;-82
2023/07/29 03:38:10;;;;;;;1.45;1.35;;;18.80;99.90;;;;;;5081407;28;20085;-83
2023/07/29 03:40:35;;;;;;;1.33;1.20;;;18.80;99.90;;;;;;5083662;28;20377;-83
2023/07/29 03:43:01;;;;;;;6.50;1.73;;;18.70;99.90;;;;;;5084112;28;20039;-83
2023/07/29 03:45:26;;;;;;;1.10;1.10;;;18.70;99.90;;;;;;5083752;28;20043;-83
2023/07/29 03:47:56;;;;;;;3.17;1.50;;;18.80;99.90;;;;;;5078790;28;20024;-84
2023/07/29 03:50:21;;;;;;;1.38;1.30;;;18.80;99.90;;;;;;5085335;28;20032;-83
2023/07/29 03:52:47;;;;;;;1.75;1.20;;;18.80;99.90;;;;;;5082649;28;20024;-83
2023/07/29 03:55:13;;;;;;;1.60;1.50;;;18.80;99.90;;;;;;5076394;28;20380;-84
2023/07/29 03:57:41;;;;;;;1.70;1.38;;;18.80;99.90;;;;;;5057887;28;20020;-84
2023/07/29 04:00:08;;;;;;;1.20;1.20;;;18.80;99.90;;;;;;5084335;28;20133;-85
2023/07/29 04:02:37;;;;;;;3.50;1.80;;;18.80;99.90;;;;;;5081666;28;20047;-83
2023/07/29 04:05:03;;;;;;;2.45;1.73;;;18.80;99.90;;;;;;5083574;28;20019;-84
2023/07/29 04:07:29;;;;;;;2.00;1.40;;;18.80;99.90;;;;;;5080670;28;20034;-83
2023/07/29 04:09:54;;;;;;;3.58;1.50;;;18.90;99.90;;;;;;5082064;28;20020;-84
2023/07/29 04:12:21;;;;;;;1.67;1.55;;;18.90;99.90;;;;;;5082284;28;20467;-83
2023/07/29 04:14:47;;;;;;;1.50;1.40;;;18.90;99.90;;;;;;5082053;28;20032;-82
2023/07/29 04:17:12;;;;;;;1.50;1.40;;;18.90;99.90;;;;;;5083248;28;20012;-83
2023/07/29 04:19:38;;;;;;;1.67;1.58;;;18.90;99.90;;;;;;5073605;28;20055;-84
2023/07/29 04:22:04;;;;;;;2.20;1.50;;;19.00;99.90;;;;;;5082635;28;20110;-82
2023/07/29 04:24:29;;;;;;;1.40;1.30;;;19.00;99.90;;;;;;5079179;28;20028;-82
2023/07/29 04:27:01;;;;;;;2.00;1.35;;;19.00;99.90;;;;;;5077307;28;20015;-83
2023/07/29 04:29:26;;;;;;;2.75;1.90;;;19.00;99.90;;;;;;5083484;28;20064;-84
2023/07/29 04:31:52;;;;;;;2.25;1.55;;;19.00;99.90;;;;;;5082491;28;20056;-82
2023/07/29 04:34:20;;;;;;;2.47;2.28;;;19.00;99.90;;;;;;5077951;28;20444;-82
2023/07/29 04:36:47;;;;;;;1.60;1.50;;;19.00;99.90;;;;;;5082480;28;20051;-82
2023/07/29 04:39:13;;;;;;;1.27;1.17;;;19.20;99.90;;;;;;5083967;28;20042;-83
2023/07/29 04:41:38;;;;;;;2.00;1.80;;;19.10;99.90;;;;;;5079631;28;20419;-83
2023/07/29 04:44:05;;;;;;;1.73;1.63;;;19.10;99.90;;;;;;5083342;28;20067;-83
2023/07/29 04:46:30;;;;;;;2.05;1.85;;;19.20;99.90;;;;;;5081606;28;20020;-83
2023/07/29 04:48:57;;;;;;;2.45;1.77;;;19.20;99.90;;;;;;5082856;28;20035;-83
2023/07/29 04:51:23;;;;;;;1.83;1.73;;;19.30;99.90;;;;;;5082017;28;20028;-84
2023/07/29 04:53:49;;;;;;;1.70;1.42;;;19.30;99.90;;;;;;5081286;28;20461;-84
2023/07/29 04:56:15;;;;;;;1.70;1.60;;;19.30;99.90;;;;;;5082023;28;20111;-83
2023/07/29 04:58:40;;;;;;;1.20;1.10;;;19.40;99.90;;;;;;5082127;28;20074;-84
2023/07/29 05:01:09;;;;;;;1.60;1.50;;;19.40;99.90;;;;;;5085380;28;20111;-83
2023/07/29 05:03:34;;;;;;;1.17;1.17;;;19.40;99.90;;;;;;5084477;28;20480;-83
2023/07/29 05:06:00;;;;;;;1.80;1.70;;;19.40;99.90;;;;;;5086246;28;20032;-83
2023/07/29 05:08:26;;;;;;;2.58;1.98;;;19.40;99.90;;;;;;5083093;28;20047;-83
2023/07/29 05:10:59;;;;;;;3.45;1.60;;;19.40;99.90;;;;;;5081188;28;20055;-83
2023/07/29 05:13:24;;;;;;;9.02;2.00;;;19.40;99.90;;;;;;5075322;28;20032;-83
2023/07/29 05:15:50;;;;;;;2.33;1.60;;;19.50;99.90;;;;;;5082648;28;20024;-82
2023/07/29 05:18:17;;;;;;;2.28;1.70;;;19.50;99.90;;;;;;5076451;28;20029;-82
2023/07/29 05:20:43;;;;;;;3.05;2.75;;;19.50;99.90;;;;;;5085488;28;20437;-83
2023/07/29 05:23:09;;;;;;;3.58;1.80;;;19.60;99.90;;;;;;5080717;28;20107;-83
2023/07/29 05:25:37;;;;;;;2.38;1.33;;;19.70;99.90;;;;;;5084772;28;20376;-83
2023/07/29 05:28:03;;;;;;;3.78;1.80;;;19.80;99.90;;;;;;5080280;28;20048;-83
2023/07/29 05:30:37;;;;;;;1.55;1.45;;;19.80;99.90;;;;;;5084727;28;20379;-84
2023/07/29 05:33:08;;;;;;;1.92;1.40;;;19.80;99.90;;;;;;5047538;28;20166;-81
2023/07/29 05:35:40;;;;;;;1.27;1.17;;;19.80;99.90;;;;;;5070665;28;20501;-84
2023/07/29 05:38:09;;;;;;;7.03;1.17;;;19.80;99.90;;;;;;5082833;28;20032;-82
2023/07/29 05:40:55;;;;;;;1.55;1.40;;;19.80;99.90;;;;;;5086647;28;20024;-83
2023/07/29 05:43:33;;;;;;;3.00;1.17;;;19.70;99.90;;;;;;5086833;28;20349;-83
2023/07/29 05:45:58;;;;;;;1.70;1.52;;;19.70;99.90;;;;;;5087497;28;20028;-84
2023/07/29 05:48:24;;;;;;;1.83;1.33;;;19.70;99.90;;;;;;5084987;28;20040;-83
2023/07/29 05:50:50;;;;;;;3.35;1.20;;;19.60;99.90;;;;;;5085714;28;20020;-82
2023/07/29 05:53:15;;;;;;;2.70;1.45;;;19.70;99.90;;;;;;5086415;28;20039;-83
2023/07/29 05:55:41;;;;;;;4.68;1.40;;;19.70;99.90;;;;;;5065887;28;20387;-83
2023/07/29 05:58:07;;;;;;;2.40;1.42;;;19.70;99.90;;;;;;5086570;28;20127;-84
2023/07/29 06:00:32;;;;;;;1.05;0.95;;;19.70;99.90;;;;;;5080258;28;20030;-82
2023/07/29 06:02:58;;;;;;;2.05;1.40;;;19.70;99.90;;;;;;5080841;28;20028;-81
2023/07/29 06:05:23;;;;;;;1.48;1.38;;;19.70;99.90;;;;;;5081692;28;20031;-82
2023/07/29 06:07:49;;;;;;;1.55;1.15;;;19.70;99.90;;;;;;5082481;28;20024;-82
2023/07/29 06:10:19;;;;;;;1.00;1.00;;;19.70;99.90;;;;;;5086406;28;20024;-83
2023/07/29 06:12:45;;;;;;;3.70;1.70;;;19.70;99.90;;;;;;5083391;28;20051;-82
2023/07/29 06:15:12;;;;;;;0.80;0.80;;;19.70;99.90;;;;;;5068999;28;20070;-82
2023/07/29 06:17:38;;;;;;;0.95;0.95;;;19.70;99.90;;;;;;5082450;28;20020;-83
2023/07/29 06:20:04;;;;;;;1.08;1.05;;;19.80;99.90;;;;;;5081097;28;20016;-84
2023/07/29 06:22:30;;;;;;;4.35;1.27;;;19.80;99.90;;;;;;5084357;28;20496;-84
2023/07/29 06:24:55;;;;;;;1.30;1.20;;;19.70;99.90;;;;;;5085005;28;20098;-81
2023/07/29 06:27:21;;;;;;;0.88;0.88;;;19.80;99.90;;;;;;5065626;28;20044;-83
2023/07/29 06:29:46;;;;;;;0.90;0.90;;;19.70;99.90;;;;;;5077340;28;20431;-82
2023/07/29 06:32:12;;;;;;;1.98;1.00;;;19.80;99.90;;;;;;5083329;28;20385;-81
2023/07/29 06:34:38;;;;;;;1.60;1.30;;;19.80;99.90;;;;;;5079717;28;20020;-85
2023/07/29 06:37:04;;;;;;;7.20;1.85;;;19.80;99.90;;;;;;5080678;28;20107;-83
2023/07/29 06:39:29;;;;;;;1.77;1.55;;;19.80;99.90;;;;;;5082437;28;20095;-82
2023/07/29 06:41:55;;;;;;;2.35;1.45;;;19.90;99.90;;;;;;5079907;28;20026;-82
2023/07/29 06:44:20;;;;;;;0.90;0.90;;;19.90;99.90;;;;;;5075827;28;20031;-82
2023/07/29 06:46:46;;;;;;;0.93;0.93;;;19.80;99.90;;;;;;5078352;28;20027;-82
2023/07/29 06:49:12;;;;;;;1.40;1.30;;;19.90;99.90;;;;;;5083013;28;20389;-82
2023/07/29 06:51:37;;;;;;;1.80;1.45;;;19.90;99.90;;;;;;5077849;28;20020;-82
2023/07/29 06:54:03;;;;;;;2.85;1.40;;;19.90;99.90;;;;;;5082260;28;20029;-83
2023/07/29 06:56:29;;;;;;;1.38;0.95;;;20.00;99.90;;;;;;5082644;28;20388;-83
2023/07/29 06:58:54;;;;;;;1.20;1.10;;;20.00;99.90;;;;;;5079437;28;20032;-82
2023/07/29 07:01:20;;;;;;;2.92;1.08;;;20.10;99.90;;;;;;5081147;28;20084;-82
2023/07/29 07:03:46;;;;;;;2.45;0.98;;;20.10;99.90;;;;;;5074085;28;20358;-82
2023/07/29 07:06:11;;;;;;;4.25;1.30;;;20.30;99.90;;;;;;5076468;28;20024;-82
2023/07/29 07:08:37;;;;;;;1.38;1.17;;;20.30;99.90;;;;;;5080820;28;20880;-83
2023/07/29 07:11:02;;;;;;;1.50;1.40;;;20.50;99.90;;;;;;5078458;28;20468;-82
2023/07/29 07:13:28;;;;;;;1.20;1.10;;;20.40;99.90;;;;;;5083407;28;20070;-83
2023/07/29 07:15:57;;;;;;;1.42;1.25;;;20.50;99.90;;;;;;5075946;28;20020;-83
2023/07/29 07:18:23;;;;;;;1.67;1.10;;;20.60;99.90;;;;;;5076256;28;20028;-83
2023/07/29 07:20:50;;;;;;;2.55;1.60;;;20.60;99.90;;;;;;5077691;28;20032;-83
2023/07/29 07:23:16;;;;;;;4.30;1.52;;;20.80;99.90;;;;;;5063978;28;20468;-82
2023/07/29 07:25:44;;;;;;;2.80;1.55;;;20.80;99.90;;;;;;5081041;28;20562;-83
2023/07/29 07:28:10;;;;;;;1.38;1.27;;;20.90;99.90;;;;;;5085278;28;20040;-83
2023/07/29 07:30:41;;;;;;;2.08;1.83;;;20.80;99.90;;;;;;5081676;28;20032;-81
2023/07/29 07:33:07;;;;;;;1.65;1.55;;;20.80;99.90;;;;;;5082886;28;20039;-83
2023/07/29 07:35:32;;;;;;;2.55;1.70;;;20.80;99.90;;;;;;5073879;28;20035;-83
2023/07/29 07:37:59;;;;;;;2.40;1.73;;;20.80;99.90;;;;;;5081296;28;20485;-83
2023/07/29 07:40:25;;;;;;;2.63;1.50;;;20.80;99.90;;;;;;5079010;28;20036;-83
2023/07/29 07:42:50;;;;;;;1.85;1.40;;;20.80;99.90;;;;;;5081929;28;20061;-83
2023/07/29 07:45:17;;;;;;;1.48;1.38;;;20.80;99.90;;;;;;5084683;28;20021;-83
2023/07/29 07:47:43;;;;;;;1.58;1.48;;;20.90;99.90;;;;;;5082355;28;20055;-83
2023/07/29 07:50:09;;;;;;;26.83;2.00;;;20.90;99.90;;;;;;5076536;28;20016;-81
2023/07/29 07:52:35;;;;;;;1.50;1.40;;;20.90;99.90;;;;;;5081542;28;20119;-80
2023/07/29 07:55:01;;;;;;;1.70;1.33;;;21.00;99.90;;;;;;5078493;28;20123;-82
2023/07/29 07:57:26;;;;;;;8.85;2.00;;;21.00;99.90;;;;;;5064215;28;20032;-82
2023/07/29 07:59:52;;;;;;;5.47;1.75;;;21.00;99.90;;;;;;5079446;28;20019;-81
2023/07/29 08:02:18;;;;;;;6.38;1.42;;;21.00;99.90;;;;;;5075357;28;20032;-83
2023/07/29 08:04:44;;;;;;;3.10;1.50;;;21.10;99.90;;;;;;5065348;28;20024;-83
2023/07/29 08:07:09;;;;;;;4.53;1.38;;;21.10;99.90;;;;;;5080072;28;20032;-83
2023/07/29 08:09:35;;;;;;;1.63;1.50;;;21.20;99.90;;;;;;5079919;28;20036;-83
2023/07/29 08:12:00;;;;;;;6.28;1.88;;;21.20;99.90;;;;;;5081579;28;20028;-81
2023/07/29 08:14:26;;;;;;;4.30;1.30;;;21.30;99.90;;;;;;5081474;28;20489;-82
2023/07/29 08:16:55;;;;;;;4.45;1.52;;;21.30;99.90;;;;;;5079797;28;20032;-82
2023/07/29 08:19:20;;;;;;;1.55;1.45;;;21.40;99.90;;;;;;5082277;28;20119;-83
2023/07/29 08:21:46;;;;;;;2.50;1.42;;;21.30;99.90;;;;;;5085149;28;20203;-82
2023/07/29 08:24:12;;;;;;;1.23;1.10;;;21.30;99.90;;;;;;5083007;28;20070;-82
2023/07/29 08:26:37;;;;;;;2.92;1.52;;;21.40;99.90;;;;;;5085143;28;20035;-83
2023/07/29 08:29:03;;;;;;;1.58;1.45;;;21.40;99.90;;;;;;5078008;28;20040;-83
2023/07/29 08:31:30;;;;;;;2.40;1.27;;;21.50;99.90;;;;;;5081438;28;20035;-82
2023/07/29 08:33:56;;;;;;;4.50;1.48;;;21.50;99.90;;;;;;5082981;28;20556;-82
2023/07/29 08:36:21;;;;;;;1.70;1.45;;;21.50;99.90;;;;;;5082524;28;20106;-83
2023/07/29 08:38:47;;;;;;;1.48;1.38;;;21.50;99.90;;;;;;5081639;28;20031;-83
2023/07/29 08:41:29;;;;;;;5.75;1.80;;;21.40;99.90;;;;;;5079910;28;20032;-83
2023/07/29 08:44:10;;;;;;;6.70;1.58;;;21.40;99.90;;;;;;5082342;28;20028;-84
2023/07/29 08:46:36;;;;;;;1.90;1.70;;;21.30;99.90;;;;;;5085945;28;20085;-82
2023/07/29 08:49:02;;;;;;;2.13;1.75;;;21.30;99.90;;;;;;5079794;28;20056;-82
2023/07/29 08:51:29;;;;;;;6.22;1.73;;;21.20;99.90;;;;;;5080246;28;20563;-83
2023/07/29 08:53:55;;;;;;;1.92;1.65;;;21.20;99.90;;;;;;5076179;28;20358;-83
2023/07/29 08:56:21;;;;;;;2.78;1.58;;;21.20;99.90;;;;;;5080916;28;20267;-85
2023/07/29 08:58:47;;;;;;;6.00;2.03;;;21.20;99.90;;;;;;5077327;28;20395;-83
2023/07/29 09:01:15;;;;;;;1.50;1.40;;;21.10;99.90;;;;;;5085286;28;20257;-82
2023/07/29 09:03:41;;;;;;;4.38;1.48;;;21.20;99.90;;;;;;5074098;28;20025;-82
2023/07/29 09:06:08;;;;;;;1.50;1.40;;;21.20;99.90;;;;;;5078952;28;20062;-82
2023/07/29 09:08:34;;;;;;;2.08;1.60;;;21.20;99.90;;;;;;5080789;28;20040;-82
2023/07/29 09:11:00;;;;;;;1.65;1.40;;;21.30;99.90;;;;;;5083346;28;20047;-81
2023/07/29 09:13:26;;;;;;;2.90;2.05;;;21.30;99.90;;;;;;5086291;28;20455;-82
2023/07/29 09:15:57;;;;;;;5.40;1.38;;;21.30;99.90;;;;;;5080574;28;20111;-83
2023/07/29 09:18:23;;;;;;;2.40;1.50;;;21.30;99.90;;;;;;5081111;28;20024;-83
2023/07/29 09:20:50;;;;;;;4.35;1.50;;;21.30;99.90;;;;;;5079853;28;20127;-82
2023/07/29 09:23:16;;;;;;;2.53;1.85;;;21.30;99.90;;;;;;5088745;28;20032;-80
2023/07/29 09:25:43;;;;;;;5.90;1.63;;;21.30;99.90;;;;;;5084265;28;20401;-81
2023/07/29 09:28:13;;;;;;;5.25;1.85;;;21.30;99.90;;;;;;5079109;28;20052;-82
2023/07/29 09:30:40;;;;;;;1.60;1.40;;;21.10;99.90;;;;;;5085295;28;20032;-81
2023/07/29 09:33:06;;;;;;;3.05;1.80;;;21.00;99.90;;;;;;5065907;28;20529;-82
2023/07/29 09:35:52;;;;;;;5.45;1.70;;;21.00;99.90;;;;;;5071055;28;20065;-81
2023/07/29 09:38:17;;;;;;;2.65;1.75;;;20.90;99.90;;;;;;5081092;28;20426;-82
2023/07/29 09:40:45;;;;;;;1.90;1.75;;;20.80;99.90;;;;;;5084758;28;20035;-81
2023/07/29 09:43:11;;;;;;;1.70;1.60;;;20.70;99.90;;;;;;5086803;28;20031;-80
2023/07/29 09:45:37;;;;;;;1.50;1.40;;;20.70;99.90;;;;;;5083416;28;20024;-80
2023/07/29 09:48:10;;;;;;;1.35;1.20;;;20.70;99.90;;;;;;5064926;28;20078;-81
2023/07/29 09:50:36;;;;;;;2.03;1.63;;;20.70;99.90;;;;;;5063044;28;20384;-81
2023/07/29 09:53:03;;;;;;;1.52;1.25;;;20.60;99.90;;;;;;5081839;28;20116;-81
2023/07/29 09:55:29;;;;;;;1.17;1.17;;;20.60;99.90;;;;;;5086787;28;20024;-81
2023/07/29 09:58:04;;;;;;;3.30;1.00;;;20.70;99.90;;;;;;5082236;28;20149;-82
2023/07/29 10:00:30;;;;;;;1.92;1.50;;;20.70;99.90;;;;;;5086819;28;20028;-81
2023/07/29 10:02:57;;;;;;;7.47;1.58;;;20.70;99.90;;;;;;5060406;28;20036;-81
2023/07/29 10:05:26;;;;;;;3.05;1.70;;;20.60;99.90;;;;;;5086232;28;20039;-82
2023/07/29 10:07:54;;;;;;;1.95;1.63;;;20.70;99.90;;;;;;5080705;28;20038;-81
2023/07/29 10:10:20;;;;;;;1.77;1.20;;;20.80;99.90;;;;;;5082901;28;20039;-81
2023/07/29 10:12:46;;;;;;;1.63;1.52;;;20.80;99.90;;;;;;5084220;28;20043;-81
2023/07/29 10:15:12;;;;;;;1.65;1.55;;;20.90;99.90;;;;;;5084930;28;20097;-82
2023/07/29 10:17:38;;;;;;;5.68;1.60;;;21.00;99.90;;;;;;5083608;28;20028;-82
2023/07/29 10:20:06;;;;;;;1.20;1.17;;;21.10;99.90;;;;;;5067165;28;20033;-82
2023/07/29 10:22:40;;;;;;;1.50;1.40;;;21.10;99.90;;;;;;5062058;28;20071;-83
2023/07/29 10:25:15;;;;;;;1.52;1.42;;;21.20;99.90;;;;;;5085513;28;20028;-82
2023/07/29 10:27:51;;;;;;;1.63;1.50;;;21.20;99.90;;;;;;5086124;28;20052;-82
2023/07/29 10:30:16;;;;;;;;;;;21.30;99.90;;;;;;5086136;28;20040;-80
2023/07/29 10:32:46;;;;;;;;;;;21.40;99.90;;;;;;5081111;28;19908;-81
2023/07/29 10:35:15;;;;;;;1.80;1.50;;;21.50;99.90;;;;;;5078114;28;19908;-81
2023/07/29 10:37:42;;;;;;;3.63;1.50;;;21.40;99.90;;;;;;5079701;28;20040;-82
2023/07/29 10:40:09;;;;;;;1.50;1.40;;;21.50;99.90;;;;;;5083715;28;20629;-81
2023/07/29 10:42:36;;;;;;;1.85;1.60;;;21.40;99.90;;;;;;5084905;28;20115;-79
2023/07/29 10:45:20;;;;;;;1.50;1.35;;;21.40;99.90;;;;;;5083721;28;20453;-82
2023/07/29 10:47:47;;;;;;;7.97;1.48;;;21.40;99.90;;;;;;5078587;28;20035;-82
2023/07/29 10:50:21;;;;;;;4.68;1.40;;;21.30;99.90;;;;;;5067575;28;20032;-81
2023/07/29 10:52:51;;;;;;;3.80;1.65;;;21.30;99.90;;;;;;5084274;28;20450;-82
2023/07/29 10:55:37;;;;;;;3.70;1.50;;;21.30;99.90;;;;;;5068391;28;20028;-82
2023/07/29 10:58:13;;;;;;;1.73;1.17;;;21.20;99.90;;;;;;5086678;28;20035;-81
2023/07/29 11:00:42;;;;;;;1.33;1.23;;;21.20;99.90;;;;;;5083255;28;20044;-82
2023/07/29 11:03:08;;;;;;;1.77;1.30;;;21.20;99.90;;;;;;5068019;28;20017;-82
2023/07/29 11:05:53;;;;;;;2.58;1.50;;;21.20;99.90;;;;;;5081011;28;20035;-80
2023/07/29 11:08:28;;;;;;;3.80;1.40;;;21.20;99.90;;;;;;5084875;28;20131;-82
2023/07/29 11:11:05;;;;;;;1.27;1.10;;;21.20;99.90;;;;;;5066762;28;20767;-82
2023/07/29 11:13:36;;;;;;;1.88;1.42;;;21.20;99.90;;;;;;5075805;28;20484;-81
2023/07/29 11:16:03;;;;;;;2.08;1.55;;;21.10;99.90;;;;;;5077795;28;20392;-82
2023/07/29 11:18:34;;;;;;;3.65;1.40;;;21.20;99.90;;;;;;5076473;28;20024;-82
2023/07/29 11:21:00;;;;;;;2.70;1.73;;;21.40;99.90;;;;;;5071835;28;20085;-82
2023/07/29 11:23:37;;;;;;;4.82;1.58;;;21.50;99.90;;;;;;5084829;28;20536;-81
2023/07/29 11:26:03;;;;;;;2.50;1.52;;;21.70;99.90;;;;;;5083970;28;20464;-81
2023/07/29 11:28:30;;;;;;;1.63;0.82;;;21.90;99.90;;;;;;5082424;28;20048;-79
2023/07/29 11:30:56;;;;;;;1.42;1.30;;;22.00;99.90;;;;;;5085833;28;20141;-80
2023/07/29 11:33:25;;;;;;;1.48;1.38;;;21.90;99.90;;;;;;5078330;28;20028;-81
2023/07/29 11:35:50;;;;;;;1.30;1.20;;;21.90;99.90;;;;;;5081350;28;20020;-82
2023/07/29 11:38:19;;;;;;;1.35;1.30;;;21.90;99.90;;;;;;5081709;28;20384;-81
2023/07/29 11:41:03;;;;;;;4.35;1.23;;;21.80;99.90;;;;;;5081191;28;20031;-83
2023/07/29 11:43:28;;;;;;;1.88;1.58;;;21.90;99.90;;;;;;5075910;28;20082;-82
2023/07/29 11:45:54;;;;;;;3.63;1.40;;;21.90;99.90;;;;;;5085513;28;20052;-81
2023/07/29 11:48:28;;;;;;;4.63;1.33;;;22.00;99.90;;;;;;5081906;28;20256;-81
2023/07/29 11:50:55;;;;;;;1.67;1.42;;;22.00;99.90;;;;;;5066935;28;20564;-82
2023/07/29 11:53:20;;;;;;;1.30;1.20;;;21.90;99.90;;;;;;5086572;28;20107;-81
2023/07/29 11:55:52;;;;;;;5.05;1.83;;;21.90;99.90;;;;;;5082057;28;20111;-81
2023/07/29 11:58:17;;;;;;;3.55;2.13;;;21.80;99.90;;;;;;5080770;28;20071;-82
2023/07/29 12:00:43;;;;;;;1.63;1.52;;;21.70;99.90;;;;;;5078301;28;20032;-82
2023/07/29 12:03:10;;;;;;;3.38;1.35;;;21.90;99.90;;;;;;5072600;28;20028;-82
2023/07/29 12:05:36;;;;;;;1.98;1.58;;;22.10;99.90;;;;;;5065057;28;20077;-81
2023/07/29 12:08:02;;;;;;;1.92;1.60;;;22.20;99.90;;;;;;5072549;28;20040;-80
2023/07/29 12:10:32;;;;;;;4.35;2.03;;;22.50;99.90;;;;;;5081723;28;20032;-82
2023/07/29 12:12:58;;;;;;;1.60;1.50;;;22.60;99.90;;;;;;5080685;28;20773;-81
2023/07/29 12:15:28;;;;;;;2.33;1.70;;;22.80;99.90;;;;;;5079660;28;20524;-81
2023/07/29 12:17:58;;;;;;;3.10;1.92;;;22.90;99.90;;;;;;5077139;28;20036;-81
2023/07/29 12:20:25;;;;;;;1.80;1.55;;;23.00;99.90;;;;;;5071909;28;20470;-83
2023/07/29 12:22:55;;;;;;;2.08;1.70;;;23.10;99.90;;;;;;5082293;28;20528;-82
2023/07/29 12:25:22;;;;;;;8.45;2.70;;;23.10;99.90;;;;;;5078709;28;21619;-85
2023/07/29 12:27:48;;;;;;;2.85;1.92;;;23.20;99.90;;;;;;5081211;28;20127;-82
2023/07/29 12:30:13;;;;;;;10.60;2.20;;;23.30;99.90;;;;;;5074411;28;20150;-82
2023/07/29 12:32:46;;;;;;;3.53;2.03;;;23.30;99.90;;;;;;5078040;28;20028;-82
2023/07/29 12:35:12;;;;;;;2.83;1.88;;;23.40;99.90;;;;;;5076259;28;20066;-81
2023/07/29 12:37:44;;;;;;;1.88;1.77;;;23.60;99.90;;;;;;5083834;28;20032;-81
2023/07/29 12:40:24;;;;;;;2.95;2.20;;;23.50;99.90;;;;;;5074657;28;20032;-82
2023/07/29 12:42:51;;;;;;;3.83;1.85;;;23.30;99.90;;;;;;5076162;28;20032;-82
2023/07/29 12:45:17;;;;;;;2.42;2.05;;;23.20;99.90;;;;;;5082492;28;20028;-82
2023/07/29 12:47:43;;;;;;;2.58;1.70;;;23.00;99.90;;;;;;5088523;28;20016;-82
2023/07/29 12:50:09;;;;;;;2.60;1.83;;;22.90;99.90;;;;;;5089703;28;20392;-81